Airfield :
LOGIN :

Register | Disclaimer

   EN    FR    IT 

 










Legend :    VFR   Marginal VFR   IFR   Intensive IFR   Very Intensive IFR
Visi :
Ceiling :
>= 8 km
>= 3000ft
5 to 8 km
1000 to 3000 ft
1500m to 5 km
500 to 1000 ft
800 to 1500m
200 to 500 ft
< 800m
< 200 ft
Symbols :   Thunderstorms  Fog  Heavy snow  Heavy precipitations  Wind > 20 kt
SIGMETs :     Misc.  Thunderstorms  Icing  Turbulence  Mountain Waves  Volcanic Ashes






- Airport Elevation : 1017 ft


LFSL - Brive Souillac

CURRENT METAR :
  • 221130Z AUTO 09010KT CAVOK 12/04 Q1027 BECMG FEW030TCU BKN060

EXPIRED METARs :
  • 221100Z AUTO 09009KT CAVOK 12/04 Q1027 BECMG FEW030TCU BKN060
  • 221030Z AUTO 08008KT 9999 FEW048 SCT062 11/03 Q1028 BECMG FEW030TCU BKN060
  • 221000Z AUTO 08009KT 9999 -RA FEW045 SCT068 BKN078 11/03 Q1028 BECMG FEW030TCU BKN060
  • 220930Z AUTO 09006KT 9999 ///TCU 10/03 Q1028 NOSIG
  • 220900Z AUTO 11004KT 070V150 CAVOK 09/02 Q1028 BECMG FEW030TCU BKN060

TAF TAF LFSL
Valid from the 22 at 09:00 until the 22 at 18:00 UTC


220800Z 2209/2218 11005KT 9999 FEW030TCU BKN060



MET'MAP, your aeronautical weather chart ! - Copyright ORBIFLY December 2007 - Disclaimer

ORBIFLY MET'MAP TEAM :

Programming & Development : Alexandra Zaïnal
Concept & original design : Baudouin d'Aumeries
Assistance for programming : Marc-Olivier Méhu
Technical & hardware support : Manuel Goepfert

Contact : metmap@orbifly.com




SOURCES & CREDITS :

   NOAA